sensor_id;sensor_type;location;lat;lon;timestamp;P1;durP1;ratioP1;P2;durP2;ratioP2
7410;SDS011;3747;48.628;9.058;2022-11-14T00:01:49;27.60;;;16.37;;
7410;SDS011;3747;48.628;9.058;2022-11-14T00:04:16;25.60;;;16.07;;
7410;SDS011;3747;48.628;9.058;2022-11-14T00:06:43;30.17;;;16.90;;
7410;SDS011;3747;48.628;9.058;2022-11-14T00:09:10;32.13;;;17.03;;
7410;SDS011;3747;48.628;9.058;2022-11-14T00:11:36;27.17;;;16.07;;
7410;SDS011;3747;48.628;9.058;2022-11-14T00:14:03;32.03;;;17.80;;
7410;SDS011;3747;48.628;9.058;2022-11-14T00:16:30;31.60;;;17.27;;
7410;SDS011;3747;48.628;9.058;2022-11-14T00:18:58;32.30;;;17.97;;
7410;SDS011;3747;48.628;9.058;2022-11-14T00:21:24;32.90;;;17.80;;
7410;SDS011;3747;48.628;9.058;2022-11-14T00:23:51;30.70;;;17.80;;
7410;SDS011;3747;48.628;9.058;2022-11-14T00:26:18;32.10;;;16.97;;
7410;SDS011;3747;48.628;9.058;2022-11-14T00:28:45;30.20;;;17.43;;
7410;SDS011;3747;48.628;9.058;2022-11-14T00:31:11;31.07;;;17.53;;
7410;SDS011;3747;48.628;9.058;2022-11-14T00:33:38;30.37;;;16.23;;
7410;SDS011;3747;48.628;9.058;2022-11-14T00:36:06;32.77;;;18.87;;
7410;SDS011;3747;48.628;9.058;2022-11-14T00:38:33;32.73;;;17.07;;
7410;SDS011;3747;48.628;9.058;2022-11-14T00:41:00;37.50;;;18.00;;
7410;SDS011;3747;48.628;9.058;2022-11-14T00:43:27;35.20;;;18.87;;
7410;SDS011;3747;48.628;9.058;2022-11-14T00:45:53;40.20;;;19.47;;
7410;SDS011;3747;48.628;9.058;2022-11-14T00:48:20;28.73;;;18.17;;
7410;SDS011;3747;48.628;9.058;2022-11-14T00:50:47;36.83;;;20.47;;
7410;SDS011;3747;48.628;9.058;2022-11-14T00:53:15;38.13;;;21.43;;
7410;SDS011;3747;48.628;9.058;2022-11-14T00:55:42;38.87;;;20.63;;
7410;SDS011;3747;48.628;9.058;2022-11-14T00:58:09;41.40;;;21.50;;
7410;SDS011;3747;48.628;9.058;2022-11-14T01:00:36;46.40;;;23.80;;
7410;SDS011;3747;48.628;9.058;2022-11-14T01:03:03;41.53;;;22.50;;
7410;SDS011;3747;48.628;9.058;2022-11-14T01:05:29;46.00;;;23.07;;
7410;SDS011;3747;48.628;9.058;2022-11-14T01:07:56;48.40;;;24.77;;
7410;SDS011;3747;48.628;9.058;2022-11-14T01:10:24;65.83;;;31.03;;
7410;SDS011;3747;48.628;9.058;2022-11-14T01:12:51;56.37;;;26.87;;
7410;SDS011;3747;48.628;9.058;2022-11-14T01:15:18;53.30;;;25.70;;
7410;SDS011;3747;48.628;9.058;2022-11-14T01:17:44;51.67;;;23.57;;
7410;SDS011;3747;48.628;9.058;2022-11-14T01:20:11;54.70;;;25.77;;
7410;SDS011;3747;48.628;9.058;2022-11-14T01:22:38;47.03;;;23.87;;
7410;SDS011;3747;48.628;9.058;2022-11-14T01:25:05;56.97;;;26.73;;
7410;SDS011;3747;48.628;9.058;2022-11-14T01:27:33;61.20;;;26.23;;
7410;SDS011;3747;48.628;9.058;2022-11-14T01:30:00;66.50;;;26.97;;
7410;SDS011;3747;48.628;9.058;2022-11-14T01:32:26;70.27;;;28.07;;
7410;SDS011;3747;48.628;9.058;2022-11-14T01:34:53;97.63;;;29.67;;
7410;SDS011;3747;48.628;9.058;2022-11-14T01:37:20;142.80;;;36.30;;
7410;SDS011;3747;48.628;9.058;2022-11-14T01:39:47;345.47;;;59.37;;
7410;SDS011;3747;48.628;9.058;2022-11-14T01:42:15;279.87;;;52.30;;
7410;SDS011;3747;48.628;9.058;2022-11-14T01:44:47;334.17;;;61.00;;
7410;SDS011;3747;48.628;9.058;2022-11-14T01:47:17;54.57;;;25.43;;
7410;SDS011;3747;48.628;9.058;2022-11-14T01:49:46;53.90;;;26.03;;
7410;SDS011;3747;48.628;9.058;2022-11-14T01:52:18;57.33;;;25.13;;
7410;SDS011;3747;48.628;9.058;2022-11-14T01:54:48;54.37;;;24.60;;
7410;SDS011;3747;48.628;9.058;2022-11-14T01:57:17;52.80;;;24.67;;
7410;SDS011;3747;48.628;9.058;2022-11-14T01:59:49;58.27;;;24.77;;
7410;SDS011;3747;48.628;9.058;2022-11-14T02:02:19;61.43;;;25.63;;
7410;SDS011;3747;48.628;9.058;2022-11-14T02:04:49;45.73;;;23.07;;
7410;SDS011;3747;48.628;9.058;2022-11-14T02:07:20;56.97;;;25.27;;
7410;SDS011;3747;48.628;9.058;2022-11-14T02:09:49;48.67;;;23.80;;
7410;SDS011;3747;48.628;9.058;2022-11-14T02:12:17;62.30;;;25.03;;
7410;SDS011;3747;48.628;9.058;2022-11-14T02:14:45;45.63;;;23.83;;
7410;SDS011;3747;48.628;9.058;2022-11-14T02:17:16;56.93;;;24.07;;
7410;SDS011;3747;48.628;9.058;2022-11-14T02:19:46;55.53;;;23.77;;
7410;SDS011;3747;48.628;9.058;2022-11-14T02:22:16;76.67;;;24.87;;
7410;SDS011;3747;48.628;9.058;2022-11-14T02:24:43;59.17;;;24.20;;
7410;SDS011;3747;48.628;9.058;2022-11-14T02:27:10;60.73;;;23.17;;
7410;SDS011;3747;48.628;9.058;2022-11-14T02:29:39;56.37;;;22.97;;
7410;SDS011;3747;48.628;9.058;2022-11-14T02:32:06;74.33;;;22.97;;
7410;SDS011;3747;48.628;9.058;2022-11-14T02:34:33;80.93;;;24.83;;
7410;SDS011;3747;48.628;9.058;2022-11-14T02:37:00;95.10;;;25.50;;
7410;SDS011;3747;48.628;9.058;2022-11-14T02:39:28;80.33;;;24.13;;
7410;SDS011;3747;48.628;9.058;2022-11-14T02:41:55;121.23;;;28.37;;
7410;SDS011;3747;48.628;9.058;2022-11-14T02:44:21;71.97;;;22.30;;
7410;SDS011;3747;48.628;9.058;2022-11-14T02:46:48;81.20;;;23.90;;
7410;SDS011;3747;48.628;9.058;2022-11-14T02:49:15;115.33;;;24.07;;
7410;SDS011;3747;48.628;9.058;2022-11-14T02:51:41;119.37;;;26.67;;
7410;SDS011;3747;48.628;9.058;2022-11-14T02:54:08;79.93;;;23.47;;
7410;SDS011;3747;48.628;9.058;2022-11-14T02:56:37;190.57;;;30.63;;
7410;SDS011;3747;48.628;9.058;2022-11-14T02:59:03;59.50;;;19.27;;
7410;SDS011;3747;48.628;9.058;2022-11-14T03:01:30;87.90;;;20.60;;
7410;SDS011;3747;48.628;9.058;2022-11-14T03:03:57;89.60;;;23.07;;
7410;SDS011;3747;48.628;9.058;2022-11-14T03:06:23;86.27;;;21.43;;
7410;SDS011;3747;48.628;9.058;2022-11-14T03:08:50;92.43;;;22.47;;
7410;SDS011;3747;48.628;9.058;2022-11-14T03:11:17;47.80;;;20.30;;
7410;SDS011;3747;48.628;9.058;2022-11-14T03:13:45;66.63;;;21.43;;
7410;SDS011;3747;48.628;9.058;2022-11-14T03:16:12;136.30;;;30.10;;
7410;SDS011;3747;48.628;9.058;2022-11-14T03:18:39;84.33;;;22.27;;
7410;SDS011;3747;48.628;9.058;2022-11-14T03:21:06;288.17;;;45.47;;
7410;SDS011;3747;48.628;9.058;2022-11-14T03:23:34;215.00;;;38.63;;
7410;SDS011;3747;48.628;9.058;2022-11-14T03:26:02;47.80;;;17.77;;
7410;SDS011;3747;48.628;9.058;2022-11-14T03:28:30;167.27;;;34.10;;
7410;SDS011;3747;48.628;9.058;2022-11-14T03:30:59;133.50;;;32.77;;
7410;SDS011;3747;48.628;9.058;2022-11-14T03:33:25;37.57;;;18.37;;
7410;SDS011;3747;48.628;9.058;2022-11-14T03:35:52;31.20;;;17.77;;
7410;SDS011;3747;48.628;9.058;2022-11-14T03:38:19;50.60;;;19.47;;
7410;SDS011;3747;48.628;9.058;2022-11-14T03:40:47;48.30;;;19.67;;
7410;SDS011;3747;48.628;9.058;2022-11-14T03:43:14;55.83;;;25.97;;
7410;SDS011;3747;48.628;9.058;2022-11-14T03:45:40;215.07;;;42.27;;
7410;SDS011;3747;48.628;9.058;2022-11-14T03:48:09;113.77;;;35.50;;
7410;SDS011;3747;48.628;9.058;2022-11-14T03:50:35;243.17;;;41.43;;
7410;SDS011;3747;48.628;9.058;2022-11-14T03:53:02;70.33;;;18.83;;
7410;SDS011;3747;48.628;9.058;2022-11-14T03:55:29;58.13;;;21.20;;
7410;SDS011;3747;48.628;9.058;2022-11-14T03:57:56;43.17;;;19.03;;
7410;SDS011;3747;48.628;9.058;2022-11-14T04:00:23;163.37;;;30.60;;
7410;SDS011;3747;48.628;9.058;2022-11-14T04:02:52;85.13;;;23.60;;
7410;SDS011;3747;48.628;9.058;2022-11-14T04:05:20;44.10;;;18.73;;
7410;SDS011;3747;48.628;9.058;2022-11-14T04:07:47;43.00;;;19.30;;
7410;SDS011;3747;48.628;9.058;2022-11-14T04:10:14;38.23;;;18.83;;
7410;SDS011;3747;48.628;9.058;2022-11-14T04:12:45;43.70;;;18.90;;
7410;SDS011;3747;48.628;9.058;2022-11-14T04:15:13;33.47;;;18.80;;
7410;SDS011;3747;48.628;9.058;2022-11-14T04:17:40;33.13;;;17.90;;
7410;SDS011;3747;48.628;9.058;2022-11-14T04:20:07;34.07;;;18.57;;
7410;SDS011;3747;48.628;9.058;2022-11-14T04:22:36;36.30;;;19.57;;
7410;SDS011;3747;48.628;9.058;2022-11-14T04:25:03;30.70;;;17.30;;
7410;SDS011;3747;48.628;9.058;2022-11-14T04:27:31;32.80;;;17.77;;
7410;SDS011;3747;48.628;9.058;2022-11-14T04:29:57;113.43;;;28.90;;
7410;SDS011;3747;48.628;9.058;2022-11-14T04:32:24;36.43;;;15.77;;
7410;SDS011;3747;48.628;9.058;2022-11-14T04:34:51;48.67;;;19.47;;
7410;SDS011;3747;48.628;9.058;2022-11-14T04:37:18;49.90;;;18.93;;
7410;SDS011;3747;48.628;9.058;2022-11-14T04:39:46;29.83;;;16.20;;
7410;SDS011;3747;48.628;9.058;2022-11-14T04:42:12;27.93;;;17.67;;
7410;SDS011;3747;48.628;9.058;2022-11-14T04:44:39;28.73;;;16.87;;
7410;SDS011;3747;48.628;9.058;2022-11-14T04:47:06;35.20;;;17.57;;
7410;SDS011;3747;48.628;9.058;2022-11-14T04:49:32;31.33;;;17.53;;
7410;SDS011;3747;48.628;9.058;2022-11-14T04:51:59;31.00;;;17.30;;
7410;SDS011;3747;48.628;9.058;2022-11-14T04:54:26;28.77;;;16.47;;
7410;SDS011;3747;48.628;9.058;2022-11-14T04:56:54;28.10;;;16.67;;
7410;SDS011;3747;48.628;9.058;2022-11-14T04:59:21;32.07;;;17.73;;
7410;SDS011;3747;48.628;9.058;2022-11-14T05:01:47;31.57;;;18.50;;
7410;SDS011;3747;48.628;9.058;2022-11-14T05:04:14;31.00;;;18.13;;
7410;SDS011;3747;48.628;9.058;2022-11-14T05:06:41;28.10;;;16.27;;
7410;SDS011;3747;48.628;9.058;2022-11-14T05:09:08;29.33;;;18.03;;
7410;SDS011;3747;48.628;9.058;2022-11-14T05:11:35;348.70;;;46.30;;
7410;SDS011;3747;48.628;9.058;2022-11-14T05:14:03;542.80;;;76.10;;
7410;SDS011;3747;48.628;9.058;2022-11-14T05:16:29;571.07;;;64.50;;
7410;SDS011;3747;48.628;9.058;2022-11-14T05:18:56;457.87;;;60.47;;
7410;SDS011;3747;48.628;9.058;2022-11-14T05:21:23;572.57;;;74.73;;
7410;SDS011;3747;48.628;9.058;2022-11-14T05:23:49;334.37;;;44.73;;
7410;SDS011;3747;48.628;9.058;2022-11-14T05:26:16;39.50;;;19.27;;
7410;SDS011;3747;48.628;9.058;2022-11-14T05:28:44;32.83;;;16.77;;
7410;SDS011;3747;48.628;9.058;2022-11-14T05:31:13;30.37;;;16.80;;
7410;SDS011;3747;48.628;9.058;2022-11-14T05:33:41;29.40;;;17.47;;
7410;SDS011;3747;48.628;9.058;2022-11-14T05:36:09;29.03;;;17.77;;
7410;SDS011;3747;48.628;9.058;2022-11-14T05:38:37;29.63;;;17.87;;
7410;SDS011;3747;48.628;9.058;2022-11-14T05:41:04;31.17;;;17.20;;
7410;SDS011;3747;48.628;9.058;2022-11-14T05:43:31;27.67;;;15.97;;
7410;SDS011;3747;48.628;9.058;2022-11-14T05:45:59;30.20;;;15.87;;
7410;SDS011;3747;48.628;9.058;2022-11-14T05:48:27;27.53;;;16.03;;
7410;SDS011;3747;48.628;9.058;2022-11-14T05:50:54;28.10;;;16.13;;
7410;SDS011;3747;48.628;9.058;2022-11-14T05:53:22;30.50;;;16.50;;
7410;SDS011;3747;48.628;9.058;2022-11-14T05:55:48;27.17;;;16.30;;
7410;SDS011;3747;48.628;9.058;2022-11-14T05:58:15;30.87;;;16.83;;
7410;SDS011;3747;48.628;9.058;2022-11-14T06:00:42;32.47;;;18.60;;
7410;SDS011;3747;48.628;9.058;2022-11-14T06:03:09;38.70;;;18.13;;
7410;SDS011;3747;48.628;9.058;2022-11-14T06:05:37;24.23;;;15.37;;
7410;SDS011;3747;48.628;9.058;2022-11-14T06:08:04;32.92;;;19.13;;
7410;SDS011;3747;48.628;9.058;2022-11-14T06:10:30;27.67;;;16.40;;
7410;SDS011;3747;48.628;9.058;2022-11-14T06:12:59;31.67;;;17.67;;
7410;SDS011;3747;48.628;9.058;2022-11-14T06:15:26;28.30;;;17.47;;
7410;SDS011;3747;48.628;9.058;2022-11-14T06:17:53;32.33;;;17.67;;
7410;SDS011;3747;48.628;9.058;2022-11-14T06:20:21;27.63;;;17.53;;
7410;SDS011;3747;48.628;9.058;2022-11-14T06:22:50;26.03;;;16.67;;
7410;SDS011;3747;48.628;9.058;2022-11-14T06:25:19;30.73;;;17.27;;
7410;SDS011;3747;48.628;9.058;2022-11-14T06:27:46;35.50;;;19.60;;
7410;SDS011;3747;48.628;9.058;2022-11-14T06:30:12;32.33;;;18.20;;
7410;SDS011;3747;48.628;9.058;2022-11-14T06:32:39;28.67;;;16.23;;
7410;SDS011;3747;48.628;9.058;2022-11-14T06:35:06;32.27;;;18.13;;
7410;SDS011;3747;48.628;9.058;2022-11-14T06:37:34;30.43;;;18.07;;
7410;SDS011;3747;48.628;9.058;2022-11-14T06:40:02;31.03;;;18.73;;
7410;SDS011;3747;48.628;9.058;2022-11-14T06:42:30;34.27;;;19.87;;
7410;SDS011;3747;48.628;9.058;2022-11-14T06:44:56;29.03;;;18.10;;
7410;SDS011;3747;48.628;9.058;2022-11-14T06:47:23;28.77;;;16.17;;
7410;SDS011;3747;48.628;9.058;2022-11-14T06:49:50;31.93;;;17.93;;
7410;SDS011;3747;48.628;9.058;2022-11-14T06:52:16;30.63;;;17.43;;
7410;SDS011;3747;48.628;9.058;2022-11-14T06:54:43;34.47;;;18.73;;
7410;SDS011;3747;48.628;9.058;2022-11-14T06:57:11;31.57;;;17.37;;
7410;SDS011;3747;48.628;9.058;2022-11-14T06:59:38;30.33;;;16.63;;
7410;SDS011;3747;48.628;9.058;2022-11-14T07:04:36;25.70;;;16.00;;
7410;SDS011;3747;48.628;9.058;2022-11-14T07:07:03;29.87;;;17.77;;
7410;SDS011;3747;48.628;9.058;2022-11-14T07:09:29;31.63;;;17.30;;
7410;SDS011;3747;48.628;9.058;2022-11-14T07:11:57;28.57;;;15.60;;
7410;SDS011;3747;48.628;9.058;2022-11-14T07:14:25;26.30;;;14.83;;
7410;SDS011;3747;48.628;9.058;2022-11-14T07:16:52;23.60;;;14.53;;
7410;SDS011;3747;48.628;9.058;2022-11-14T07:19:19;20.97;;;13.70;;
7410;SDS011;3747;48.628;9.058;2022-11-14T07:21:46;23.33;;;14.00;;
7410;SDS011;3747;48.628;9.058;2022-11-14T07:24:13;22.90;;;13.30;;
7410;SDS011;3747;48.628;9.058;2022-11-14T07:26:40;20.57;;;13.30;;
7410;SDS011;3747;48.628;9.058;2022-11-14T07:29:06;22.03;;;13.37;;
7410;SDS011;3747;48.628;9.058;2022-11-14T07:31:35;21.17;;;12.23;;
7410;SDS011;3747;48.628;9.058;2022-11-14T07:34:01;19.33;;;11.93;;
7410;SDS011;3747;48.628;9.058;2022-11-14T07:36:30;19.37;;;12.77;;
7410;SDS011;3747;48.628;9.058;2022-11-14T07:38:56;18.37;;;12.33;;
7410;SDS011;3747;48.628;9.058;2022-11-14T07:41:23;18.83;;;11.83;;
7410;SDS011;3747;48.628;9.058;2022-11-14T07:43:50;17.10;;;11.20;;
7410;SDS011;3747;48.628;9.058;2022-11-14T07:46:16;16.80;;;10.17;;
7410;SDS011;3747;48.628;9.058;2022-11-14T07:48:45;17.17;;;10.63;;
7410;SDS011;3747;48.628;9.058;2022-11-14T07:51:13;15.53;;;10.03;;
7410;SDS011;3747;48.628;9.058;2022-11-14T07:53:40;12.43;;;8.93;;
7410;SDS011;3747;48.628;9.058;2022-11-14T07:56:08;11.20;;;7.43;;
7410;SDS011;3747;48.628;9.058;2022-11-14T07:58:35;7.13;;;5.50;;
7410;SDS011;3747;48.628;9.058;2022-11-14T08:01:02;5.80;;;4.40;;
7410;SDS011;3747;48.628;9.058;2022-11-14T08:03:31;5.47;;;4.80;;
7410;SDS011;3747;48.628;9.058;2022-11-14T08:06:00;6.47;;;5.07;;
7410;SDS011;3747;48.628;9.058;2022-11-14T08:08:27;6.27;;;4.37;;
7410;SDS011;3747;48.628;9.058;2022-11-14T08:10:54;5.37;;;4.07;;
7410;SDS011;3747;48.628;9.058;2022-11-14T08:13:22;7.17;;;4.57;;
7410;SDS011;3747;48.628;9.058;2022-11-14T08:15:49;8.77;;;4.93;;
7410;SDS011;3747;48.628;9.058;2022-11-14T08:18:16;8.13;;;4.70;;
7410;SDS011;3747;48.628;9.058;2022-11-14T08:20:43;6.17;;;4.10;;
7410;SDS011;3747;48.628;9.058;2022-11-14T08:23:11;6.17;;;3.63;;
7410;SDS011;3747;48.628;9.058;2022-11-14T08:25:38;5.37;;;4.10;;
7410;SDS011;3747;48.628;9.058;2022-11-14T08:28:05;4.13;;;3.43;;
7410;SDS011;3747;48.628;9.058;2022-11-14T08:30:33;7.23;;;3.47;;
7410;SDS011;3747;48.628;9.058;2022-11-14T08:33:00;7.27;;;3.77;;
7410;SDS011;3747;48.628;9.058;2022-11-14T08:35:27;3.93;;;2.90;;
7410;SDS011;3747;48.628;9.058;2022-11-14T08:37:54;5.20;;;3.30;;
7410;SDS011;3747;48.628;9.058;2022-11-14T08:40:22;3.17;;;2.87;;
7410;SDS011;3747;48.628;9.058;2022-11-14T08:42:49;4.30;;;3.27;;
7410;SDS011;3747;48.628;9.058;2022-11-14T08:45:16;2.77;;;2.37;;
7410;SDS011;3747;48.628;9.058;2022-11-14T08:47:49;4.77;;;2.77;;
7410;SDS011;3747;48.628;9.058;2022-11-14T08:50:16;4.23;;;3.03;;
7410;SDS011;3747;48.628;9.058;2022-11-14T08:52:47;2.73;;;2.50;;
7410;SDS011;3747;48.628;9.058;2022-11-14T08:55:15;3.77;;;2.80;;
7410;SDS011;3747;48.628;9.058;2022-11-14T08:57:43;3.57;;;2.70;;
7410;SDS011;3747;48.628;9.058;2022-11-14T09:00:10;2.97;;;2.70;;
7410;SDS011;3747;48.628;9.058;2022-11-14T09:02:37;4.53;;;3.40;;
7410;SDS011;3747;48.628;9.058;2022-11-14T09:05:05;3.53;;;3.13;;
7410;SDS011;3747;48.628;9.058;2022-11-14T09:07:32;4.23;;;3.53;;
7410;SDS011;3747;48.628;9.058;2022-11-14T09:09:59;4.00;;;3.20;;
7410;SDS011;3747;48.628;9.058;2022-11-14T09:12:25;3.10;;;2.80;;
7410;SDS011;3747;48.628;9.058;2022-11-14T09:14:54;4.77;;;4.07;;
7410;SDS011;3747;48.628;9.058;2022-11-14T09:17:20;5.73;;;3.87;;
7410;SDS011;3747;48.628;9.058;2022-11-14T09:19:47;6.27;;;4.40;;
7410;SDS011;3747;48.628;9.058;2022-11-14T09:22:14;5.87;;;4.73;;
7410;SDS011;3747;48.628;9.058;2022-11-14T09:24:41;7.37;;;6.67;;
7410;SDS011;3747;48.628;9.058;2022-11-14T09:27:10;6.13;;;5.53;;
7410;SDS011;3747;48.628;9.058;2022-11-14T09:29:37;4.90;;;4.40;;
7410;SDS011;3747;48.628;9.058;2022-11-14T09:32:05;5.00;;;3.47;;
7410;SDS011;3747;48.628;9.058;2022-11-14T09:34:33;4.13;;;3.30;;
7410;SDS011;3747;48.628;9.058;2022-11-14T09:37:01;3.73;;;3.43;;
7410;SDS011;3747;48.628;9.058;2022-11-14T09:39:28;4.67;;;2.80;;
7410;SDS011;3747;48.628;9.058;2022-11-14T09:41:58;6.73;;;3.93;;
7410;SDS011;3747;48.628;9.058;2022-11-14T09:44:40;7.30;;;5.20;;
7410;SDS011;3747;48.628;9.058;2022-11-14T09:47:17;2.87;;;2.67;;
7410;SDS011;3747;48.628;9.058;2022-11-14T09:49:48;4.20;;;3.77;;
7410;SDS011;3747;48.628;9.058;2022-11-14T09:52:20;2.77;;;2.07;;
7410;SDS011;3747;48.628;9.058;2022-11-14T09:54:54;3.47;;;2.67;;
7410;SDS011;3747;48.628;9.058;2022-11-14T09:57:23;4.53;;;2.53;;
7410;SDS011;3747;48.628;9.058;2022-11-14T09:59:51;4.40;;;2.87;;
7410;SDS011;3747;48.628;9.058;2022-11-14T10:02:23;2.30;;;2.10;;
7410;SDS011;3747;48.628;9.058;2022-11-14T10:05:15;2.23;;;1.80;;
7410;SDS011;3747;48.628;9.058;2022-11-14T10:08:14;1.60;;;1.50;;
7410;SDS011;3747;48.628;9.058;2022-11-14T10:10:50;3.30;;;1.77;;
7410;SDS011;3747;48.628;9.058;2022-11-14T10:13:25;1.70;;;1.60;;
7410;SDS011;3747;48.628;9.058;2022-11-14T10:16:06;1.90;;;1.53;;
7410;SDS011;3747;48.628;9.058;2022-11-14T10:18:45;2.03;;;1.77;;
7410;SDS011;3747;48.628;9.058;2022-11-14T10:21:33;1.50;;;1.40;;
7410;SDS011;3747;48.628;9.058;2022-11-14T10:24:15;1.27;;;1.00;;
7410;SDS011;3747;48.628;9.058;2022-11-14T10:26:51;2.23;;;1.20;;
7410;SDS011;3747;48.628;9.058;2022-11-14T10:29:39;1.20;;;1.10;;
7410;SDS011;3747;48.628;9.058;2022-11-14T10:32:47;2.23;;;2.03;;
7410;SDS011;3747;48.628;9.058;2022-11-14T10:35:26;1.70;;;1.60;;
7410;SDS011;3747;48.628;9.058;2022-11-14T10:37:58;2.90;;;1.70;;
7410;SDS011;3747;48.628;9.058;2022-11-14T10:40:29;1.60;;;1.50;;
7410;SDS011;3747;48.628;9.058;2022-11-14T10:43:05;2.97;;;1.30;;
7410;SDS011;3747;48.628;9.058;2022-11-14T10:45:40;2.97;;;2.00;;
7410;SDS011;3747;48.628;9.058;2022-11-14T10:48:12;1.70;;;1.60;;
7410;SDS011;3747;48.628;9.058;2022-11-14T10:50:44;1.40;;;1.30;;
7410;SDS011;3747;48.628;9.058;2022-11-14T10:53:19;2.87;;;1.97;;
7410;SDS011;3747;48.628;9.058;2022-11-14T10:55:53;1.83;;;1.73;;
7410;SDS011;3747;48.628;9.058;2022-11-14T10:58:21;2.60;;;1.90;;
7410;SDS011;3747;48.628;9.058;2022-11-14T11:00:48;2.40;;;1.70;;
7410;SDS011;3747;48.628;9.058;2022-11-14T11:03:15;1.50;;;1.30;;
7410;SDS011;3747;48.628;9.058;2022-11-14T11:05:46;2.33;;;1.97;;
7410;SDS011;3747;48.628;9.058;2022-11-14T11:08:17;1.70;;;1.60;;
7410;SDS011;3747;48.628;9.058;2022-11-14T11:11:03;2.57;;;1.53;;
7410;SDS011;3747;48.628;9.058;2022-11-14T11:13:49;1.97;;;1.60;;
7410;SDS011;3747;48.628;9.058;2022-11-14T11:16:19;3.60;;;2.97;;
7410;SDS011;3747;48.628;9.058;2022-11-14T11:18:47;2.40;;;2.03;;
7410;SDS011;3747;48.628;9.058;2022-11-14T11:21:17;2.10;;;1.90;;
7410;SDS011;3747;48.628;9.058;2022-11-14T11:23:49;2.63;;;2.00;;
7410;SDS011;3747;48.628;9.058;2022-11-14T11:26:22;10.80;;;7.23;;
7410;SDS011;3747;48.628;9.058;2022-11-14T11:29:06;3.60;;;3.30;;
7410;SDS011;3747;48.628;9.058;2022-11-14T11:31:53;2.90;;;1.90;;
7410;SDS011;3747;48.628;9.058;2022-11-14T11:34:22;1.17;;;1.07;;
7410;SDS011;3747;48.628;9.058;2022-11-14T11:36:54;2.87;;;2.67;;
7410;SDS011;3747;48.628;9.058;2022-11-14T11:39:25;1.30;;;1.20;;
7410;SDS011;3747;48.628;9.058;2022-11-14T11:41:54;1.80;;;1.70;;
7410;SDS011;3747;48.628;9.058;2022-11-14T11:44:24;2.07;;;1.60;;
7410;SDS011;3747;48.628;9.058;2022-11-14T11:47:01;3.37;;;1.60;;
7410;SDS011;3747;48.628;9.058;2022-11-14T11:49:34;1.93;;;1.83;;
7410;SDS011;3747;48.628;9.058;2022-11-14T11:52:11;1.73;;;1.63;;
7410;SDS011;3747;48.628;9.058;2022-11-14T11:54:51;1.97;;;1.67;;
7410;SDS011;3747;48.628;9.058;2022-11-14T11:57:25;1.37;;;1.27;;
7410;SDS011;3747;48.628;9.058;2022-11-14T11:59:58;4.70;;;3.17;;
7410;SDS011;3747;48.628;9.058;2022-11-14T12:02:30;2.90;;;2.00;;
7410;SDS011;3747;48.628;9.058;2022-11-14T12:05:09;2.03;;;1.20;;
7410;SDS011;3747;48.628;9.058;2022-11-14T12:07:43;1.90;;;1.50;;
7410;SDS011;3747;48.628;9.058;2022-11-14T12:10:16;1.33;;;1.23;;
7410;SDS011;3747;48.628;9.058;2022-11-14T12:12:56;3.33;;;1.63;;
7410;SDS011;3747;48.628;9.058;2022-11-14T12:15:46;1.33;;;1.10;;
7410;SDS011;3747;48.628;9.058;2022-11-14T12:18:23;1.90;;;1.80;;
7410;SDS011;3747;48.628;9.058;2022-11-14T12:21:15;1.30;;;1.20;;
7410;SDS011;3747;48.628;9.058;2022-11-14T12:23:57;2.90;;;1.50;;
7410;SDS011;3747;48.628;9.058;2022-11-14T12:27:07;1.53;;;1.27;;
7410;SDS011;3747;48.628;9.058;2022-11-14T12:29:45;1.80;;;1.70;;
7410;SDS011;3747;48.628;9.058;2022-11-14T12:32:28;3.60;;;2.30;;
7410;SDS011;3747;48.628;9.058;2022-11-14T12:34:57;3.70;;;1.17;;
7410;SDS011;3747;48.628;9.058;2022-11-14T12:37:30;1.33;;;1.23;;
7410;SDS011;3747;48.628;9.058;2022-11-14T12:40:03;1.40;;;1.30;;
7410;SDS011;3747;48.628;9.058;2022-11-14T12:42:32;1.60;;;1.43;;
7410;SDS011;3747;48.628;9.058;2022-11-14T12:48:20;1.20;;;1.20;;
7410;SDS011;3747;48.628;9.058;2022-11-14T12:50:48;2.07;;;1.50;;
7410;SDS011;3747;48.628;9.058;2022-11-14T12:56:13;1.83;;;0.97;;
7410;SDS011;3747;48.628;9.058;2022-11-14T12:59:02;1.63;;;1.17;;
7410;SDS011;3747;48.628;9.058;2022-11-14T13:01:45;2.27;;;1.13;;
7410;SDS011;3747;48.628;9.058;2022-11-14T13:04:17;1.50;;;1.40;;
7410;SDS011;3747;48.628;9.058;2022-11-14T13:06:55;3.20;;;1.40;;
7410;SDS011;3747;48.628;9.058;2022-11-14T13:09:34;2.23;;;1.20;;
7410;SDS011;3747;48.628;9.058;2022-11-14T13:12:25;3.37;;;1.67;;
7410;SDS011;3747;48.628;9.058;2022-11-14T13:15:19;1.67;;;1.40;;
7410;SDS011;3747;48.628;9.058;2022-11-14T13:18:13;1.40;;;1.20;;
7410;SDS011;3747;48.628;9.058;2022-11-14T13:21:01;1.60;;;1.50;;
7410;SDS011;3747;48.628;9.058;2022-11-14T13:23:54;3.00;;;2.23;;
7410;SDS011;3747;48.628;9.058;2022-11-14T13:26:37;4.70;;;2.10;;
7410;SDS011;3747;48.628;9.058;2022-11-14T13:38:30;1.63;;;1.53;;
7410;SDS011;3747;48.628;9.058;2022-11-14T13:41:22;1.67;;;1.33;;
7410;SDS011;3747;48.628;9.058;2022-11-14T13:44:29;6.80;;;2.10;;
7410;SDS011;3747;48.628;9.058;2022-11-14T13:47:15;4.30;;;2.03;;
7410;SDS011;3747;48.628;9.058;2022-11-14T13:49:56;2.07;;;1.73;;
7410;SDS011;3747;48.628;9.058;2022-11-14T13:52:28;2.23;;;1.83;;
7410;SDS011;3747;48.628;9.058;2022-11-14T13:54:58;1.60;;;1.50;;
7410;SDS011;3747;48.628;9.058;2022-11-14T13:57:27;2.00;;;1.80;;
7410;SDS011;3747;48.628;9.058;2022-11-14T14:00:09;1.77;;;1.50;;
7410;SDS011;3747;48.628;9.058;2022-11-14T14:02:47;1.40;;;1.30;;
7410;SDS011;3747;48.628;9.058;2022-11-14T14:05:32;1.80;;;1.70;;
7410;SDS011;3747;48.628;9.058;2022-11-14T14:08:17;3.67;;;1.80;;
7410;SDS011;3747;48.628;9.058;2022-11-14T14:10:51;1.97;;;1.70;;
7410;SDS011;3747;48.628;9.058;2022-11-14T14:13:32;1.60;;;1.40;;
7410;SDS011;3747;48.628;9.058;2022-11-14T14:16:11;3.23;;;2.00;;
7410;SDS011;3747;48.628;9.058;2022-11-14T14:18:44;4.20;;;2.30;;
7410;SDS011;3747;48.628;9.058;2022-11-14T14:21:22;4.50;;;3.50;;
7410;SDS011;3747;48.628;9.058;2022-11-14T14:24:00;4.17;;;2.50;;
7410;SDS011;3747;48.628;9.058;2022-11-14T14:26:36;3.13;;;1.70;;
7410;SDS011;3747;48.628;9.058;2022-11-14T14:29:22;2.70;;;1.87;;
7410;SDS011;3747;48.628;9.058;2022-11-14T14:31:50;3.23;;;2.20;;
7410;SDS011;3747;48.628;9.058;2022-11-14T14:34:21;2.00;;;1.80;;
7410;SDS011;3747;48.628;9.058;2022-11-14T14:36:49;4.27;;;2.03;;
7410;SDS011;3747;48.628;9.058;2022-11-14T14:39:18;4.00;;;2.27;;
7410;SDS011;3747;48.628;9.058;2022-11-14T14:41:47;3.07;;;1.87;;
7410;SDS011;3747;48.628;9.058;2022-11-14T14:44:17;2.07;;;1.90;;
7410;SDS011;3747;48.628;9.058;2022-11-14T14:46:47;2.17;;;1.80;;
7410;SDS011;3747;48.628;9.058;2022-11-14T14:49:16;3.40;;;2.00;;
7410;SDS011;3747;48.628;9.058;2022-11-14T14:51:46;2.60;;;2.20;;
7410;SDS011;3747;48.628;9.058;2022-11-14T14:54:21;4.13;;;2.27;;
7410;SDS011;3747;48.628;9.058;2022-11-14T14:59:57;2.90;;;2.07;;
7410;SDS011;3747;48.628;9.058;2022-11-14T15:02:27;2.10;;;1.70;;
7410;SDS011;3747;48.628;9.058;2022-11-14T15:04:56;2.40;;;2.13;;
7410;SDS011;3747;48.628;9.058;2022-11-14T15:07:25;2.60;;;1.90;;
7410;SDS011;3747;48.628;9.058;2022-11-14T15:09:57;2.27;;;2.03;;
7410;SDS011;3747;48.628;9.058;2022-11-14T15:12:28;3.80;;;2.00;;
7410;SDS011;3747;48.628;9.058;2022-11-14T15:14:59;3.17;;;2.27;;
7410;SDS011;3747;48.628;9.058;2022-11-14T15:17:27;2.17;;;1.70;;
7410;SDS011;3747;48.628;9.058;2022-11-14T15:19:55;1.80;;;1.70;;
7410;SDS011;3747;48.628;9.058;2022-11-14T15:22:22;2.23;;;1.97;;
7410;SDS011;3747;48.628;9.058;2022-11-14T15:25:04;3.57;;;1.87;;
7410;SDS011;3747;48.628;9.058;2022-11-14T15:27:49;2.77;;;2.20;;
7410;SDS011;3747;48.628;9.058;2022-11-14T15:30:20;3.60;;;2.37;;
7410;SDS011;3747;48.628;9.058;2022-11-14T15:32:49;3.60;;;2.07;;
7410;SDS011;3747;48.628;9.058;2022-11-14T15:35:25;1.80;;;1.70;;
7410;SDS011;3747;48.628;9.058;2022-11-14T15:38:04;2.93;;;2.30;;
7410;SDS011;3747;48.628;9.058;2022-11-14T15:40:46;4.10;;;2.73;;
7410;SDS011;3747;48.628;9.058;2022-11-14T15:43:35;7.70;;;5.90;;